Higgins, Texas
Current Conditions -  °F | °C
As of 7:53 AM on Tuesday 27 Jan 2015 (Local Time) from KGAG Reporting Station
Clear Clear  
Wind Chill: 29°   Ceiling: Unl
Heat Index: 33°   Visibility: 10mi
Dew Point: 30°   Wind: 5mph
Humidity: 89%   Direction: 240°WSW
Pressure: 30.17"   Gusts: NA
Location:  36.12°N, 100.02°W
Report Text: KGAG 271353Z AUTO 24004KT 10SM CLR 01/M01 A3017 RMK AO2 SLP222 T00061011
Loading
Personal Weather Stations






























Interactive Weather Map New forecast layout! Learn more

10-Day Weather Forecast

Advertisements
Track Severe Weather on mobile